createdAt,value
2018-10-01T00:02:06.068Z,14.59
2018-10-01T00:04:34.277Z,14.69
2018-10-01T00:07:02.145Z,14.52
2018-10-01T00:09:29.927Z,14.54
2018-10-01T00:11:57.851Z,14.54
2018-10-01T00:14:25.631Z,14.49
2018-10-01T00:16:53.408Z,14.51
2018-10-01T00:19:27.280Z,14.50
2018-10-01T00:22:00.960Z,14.54
2018-10-01T00:24:29.061Z,14.53
2018-10-01T00:26:56.866Z,14.53
2018-10-01T00:29:24.750Z,14.51
2018-10-01T00:31:52.532Z,14.53
2018-10-01T00:34:20.271Z,14.54
2018-10-01T00:36:48.076Z,14.52
2018-10-01T00:39:15.851Z,14.51
2018-10-01T00:41:43.650Z,14.51
2018-10-01T00:44:11.461Z,14.45
2018-10-01T00:46:39.513Z,14.42
2018-10-01T00:49:07.301Z,14.42
2018-10-01T00:51:35.079Z,14.40
2018-10-01T00:54:03.244Z,14.42
2018-10-01T00:56:31.068Z,14.41
2018-10-01T00:58:59.167Z,14.42
2018-10-01T01:01:27.473Z,14.43
2018-10-01T01:03:55.244Z,14.39
2018-10-01T01:06:29.555Z,14.38
2018-10-01T01:08:57.343Z,14.38
2018-10-01T01:11:25.115Z,14.38
2018-10-01T01:13:52.922Z,14.35
2018-10-01T01:16:20.679Z,14.28
2018-10-01T01:18:48.463Z,14.26
2018-10-01T01:21:16.243Z,14.24
2018-10-01T01:23:44.035Z,14.22
2018-10-01T01:26:11.856Z,14.23
2018-10-01T01:28:39.874Z,14.17
2018-10-01T01:31:07.676Z,14.15
2018-10-01T01:33:35.447Z,14.12
2018-10-01T01:36:03.531Z,14.09
2018-10-01T01:38:42.560Z,14.06
2018-10-01T01:41:10.739Z,14.03
2018-10-01T01:43:38.583Z,14.00
2018-10-01T01:46:06.471Z,14.00
2018-10-01T01:48:34.351Z,13.89
2018-10-01T01:51:02.137Z,13.86
2018-10-01T01:53:30.013Z,13.84
2018-10-01T01:55:57.832Z,13.76
2018-10-01T01:58:25.656Z,13.73
2018-10-01T02:00:53.536Z,13.73
2018-10-01T02:03:21.345Z,13.73
2018-10-01T02:05:49.134Z,13.70
2018-10-01T02:08:22.904Z,13.73
2018-10-01T02:10:50.728Z,13.69
2018-10-01T02:13:18.512Z,13.57
2018-10-01T02:15:46.326Z,13.54
2018-10-01T02:18:14.094Z,13.49
2018-10-01T02:20:41.974Z,13.73
2018-10-01T02:23:09.774Z,13.56
2018-10-01T02:25:37.602Z,13.51
2018-10-01T02:28:06.019Z,13.54
2018-10-01T02:30:33.935Z,13.51
2018-10-01T02:33:02.115Z,13.49
2018-10-01T02:35:30.078Z,13.47
2018-10-01T02:37:57.950Z,13.43
2018-10-01T02:40:25.799Z,13.43
2018-10-01T02:42:53.578Z,13.34
2018-10-01T02:45:21.460Z,13.34
2018-10-01T02:47:49.368Z,13.29
2018-10-01T02:50:17.088Z,13.29
2018-10-01T02:52:50.683Z,13.26
2018-10-01T02:55:18.524Z,13.21
2018-10-01T02:57:46.675Z,13.19
2018-10-01T03:00:14.500Z,13.21
2018-10-01T03:02:42.276Z,13.19
2018-10-01T03:05:14.387Z,13.07
2018-10-01T03:07:42.193Z,13.05
2018-10-01T03:10:10.037Z,13.05
2018-10-01T03:12:37.839Z,13.06
2018-10-01T03:15:05.720Z,13.02
2018-10-01T03:17:33.590Z,12.99
2018-10-01T03:20:01.394Z,12.96
2018-10-01T03:22:29.224Z,12.95
2018-10-01T03:25:00.356Z,12.84
2018-10-01T03:27:28.290Z,12.85
2018-10-01T03:29:56.104Z,12.84
2018-10-01T03:32:23.935Z,12.82
2018-10-01T03:34:51.789Z,12.81
2018-10-01T03:37:19.636Z,12.76
2018-10-01T03:39:47.503Z,12.72
2018-10-01T03:42:15.355Z,12.69
2018-10-01T03:44:43.221Z,12.66
2018-10-01T03:47:11.387Z,12.80
2018-10-01T03:49:39.195Z,12.64
2018-10-01T03:52:07.028Z,12.57
2018-10-01T03:54:35.176Z,12.55
2018-10-01T03:57:03.062Z,12.52
2018-10-01T03:59:30.889Z,12.50
2018-10-01T04:01:58.701Z,12.47
2018-10-01T04:04:26.508Z,12.48
2018-10-01T04:06:54.357Z,12.45
2018-10-01T04:09:22.581Z,12.39
2018-10-01T04:11:50.417Z,12.36
2018-10-01T04:14:18.223Z,12.33
2018-10-01T04:16:46.041Z,12.32
2018-10-01T04:19:13.831Z,12.31
2018-10-01T04:21:41.672Z,12.27
2018-10-01T04:24:09.880Z,12.24
2018-10-01T04:26:37.741Z,12.21
2018-10-01T04:29:06.047Z,12.19
2018-10-01T04:31:33.846Z,12.15
2018-10-01T04:34:02.308Z,12.12
2018-10-01T04:36:30.215Z,12.11
2018-10-01T04:38:58.023Z,12.10
2018-10-01T04:41:25.941Z,12.09
2018-10-01T04:43:53.940Z,12.07
2018-10-01T04:46:24.907Z,12.05
2018-10-01T04:48:52.696Z,12.06
2018-10-01T04:51:20.539Z,11.95
2018-10-01T04:53:48.331Z,11.93
2018-10-01T04:56:16.140Z,11.88
2018-10-01T04:58:43.976Z,11.92
2018-10-01T05:01:11.783Z,11.96
2018-10-01T05:03:39.699Z,11.66
2018-10-01T05:06:07.873Z,11.57
2018-10-01T05:08:35.659Z,11.66
2018-10-01T05:11:03.724Z,11.67
2018-10-01T05:13:31.599Z,11.73
2018-10-01T05:15:59.519Z,11.78
2018-10-01T05:18:27.643Z,11.80
2018-10-01T05:20:55.426Z,11.82
2018-10-01T05:23:23.195Z,11.80
2018-10-01T05:25:51.008Z,11.83
2018-10-01T05:28:18.812Z,11.86
2018-10-01T05:30:46.635Z,11.88
2018-10-01T05:33:14.422Z,11.88
2018-10-01T05:35:42.267Z,11.88
2018-10-01T05:38:10.079Z,11.88
2018-10-01T05:40:37.886Z,11.90
2018-10-01T05:43:05.743Z,11.94
2018-10-01T05:45:33.573Z,11.94
2018-10-01T05:48:01.394Z,11.91
2018-10-01T05:50:29.248Z,11.94
2018-10-01T05:52:57.039Z,11.97
2018-10-01T05:55:24.879Z,11.97
2018-10-01T05:57:52.763Z,11.97
2018-10-01T06:00:20.687Z,11.96
2018-10-01T06:02:48.551Z,12.00
2018-10-01T06:05:16.396Z,11.99
2018-10-01T06:07:44.211Z,12.03
2018-10-01T06:10:11.992Z,12.00
2018-10-01T06:12:39.859Z,12.04
2018-10-01T06:15:07.749Z,12.07
2018-10-01T06:17:35.583Z,12.10
2018-10-01T06:20:03.868Z,12.10
2018-10-01T06:22:31.970Z,12.10
2018-10-01T06:24:59.819Z,12.12
2018-10-01T06:27:27.731Z,12.12
2018-10-01T06:29:55.645Z,12.15
2018-10-01T06:32:23.458Z,12.12
2018-10-01T06:34:51.347Z,12.17
2018-10-01T06:37:20.180Z,12.20
2018-10-01T06:39:48.054Z,12.24
2018-10-01T06:42:15.994Z,12.26
2018-10-01T06:44:43.756Z,12.27
2018-10-01T06:47:11.592Z,12.32
2018-10-01T06:49:39.375Z,12.33
2018-10-01T06:52:07.276Z,12.37
2018-10-01T06:54:35.500Z,12.41
2018-10-01T06:57:03.613Z,12.44
2018-10-01T06:59:31.628Z,12.34
2018-10-01T07:01:59.514Z,12.44
2018-10-01T07:04:27.401Z,12.46
2018-10-01T07:06:55.295Z,12.51
2018-10-01T07:09:23.104Z,12.55
2018-10-01T07:11:50.895Z,12.59
2018-10-01T07:14:18.710Z,12.64
2018-10-01T07:16:46.861Z,12.54
2018-10-01T07:19:15.026Z,12.61
2018-10-01T07:21:42.923Z,12.69
2018-10-01T07:24:10.722Z,12.64
2018-10-01T07:26:38.527Z,12.63
2018-10-01T07:29:06.315Z,12.73
2018-10-01T07:31:34.177Z,12.62
2018-10-01T07:34:02.390Z,12.71
2018-10-01T07:36:30.333Z,12.74
2018-10-01T07:38:58.248Z,12.76
2018-10-01T07:41:25.979Z,12.79
2018-10-01T07:43:54.307Z,12.73
2018-10-01T07:46:22.256Z,12.73
2018-10-01T07:48:49.999Z,12.84
2018-10-01T07:51:17.847Z,12.82
2018-10-01T07:53:45.720Z,12.93
2018-10-01T07:56:13.957Z,12.82
2018-10-01T07:58:41.899Z,12.99
2018-10-01T08:01:09.725Z,13.03
2018-10-01T08:03:37.785Z,13.01
2018-10-01T08:06:05.763Z,12.96
2018-10-01T08:08:33.618Z,12.76
2018-10-01T08:11:01.419Z,12.88
2018-10-01T08:13:29.777Z,12.94
2018-10-01T08:16:01.631Z,12.88
2018-10-01T08:18:29.535Z,12.81
2018-10-01T08:20:57.547Z,12.94
2018-10-01T08:23:25.371Z,13.02
2018-10-01T08:25:53.179Z,13.05
2018-10-01T08:28:21.007Z,12.93
2018-10-01T08:30:48.906Z,12.81
2018-10-01T08:33:16.764Z,12.89
2018-10-01T08:35:44.568Z,12.98
2018-10-01T08:38:12.884Z,12.80
2018-10-01T08:40:40.585Z,12.81
2018-10-01T08:43:08.439Z,12.93
2018-10-01T08:45:36.368Z,12.96
2018-10-01T08:48:04.330Z,13.04
2018-10-01T08:51:39.742Z,13.11
2018-10-01T08:54:31.244Z,13.38
2018-10-01T08:56:59.420Z,13.45
2018-10-01T08:59:27.333Z,13.59
2018-10-01T09:01:55.463Z,13.65
2018-10-01T09:04:25.719Z,13.82
2018-10-01T09:06:53.648Z,14.10
2018-10-01T09:09:21.413Z,14.34
2018-10-01T09:11:49.242Z,14.54
2018-10-01T09:14:17.171Z,14.72
2018-10-01T09:16:44.875Z,14.82
2018-10-01T09:19:12.696Z,14.66
2018-10-01T09:21:40.520Z,14.77
2018-10-01T09:24:09.471Z,14.96
2018-10-01T09:26:37.564Z,15.13
2018-10-01T09:29:05.671Z,15.25
2018-10-01T09:31:33.472Z,15.24
2018-10-01T09:34:01.339Z,15.22
2018-10-01T09:36:32.703Z,15.18
2018-10-01T09:39:00.799Z,15.36
2018-10-01T09:41:28.719Z,15.13
2018-10-01T09:43:56.606Z,15.42
2018-10-01T09:46:24.461Z,15.53
2018-10-01T09:48:52.317Z,15.73
2018-10-01T09:51:20.223Z,15.80
2018-10-01T09:53:48.187Z,15.77
2018-10-01T09:56:16.154Z,15.52
2018-10-01T09:58:44.090Z,15.39
2018-10-01T10:01:13.477Z,15.37
2018-10-01T10:03:41.343Z,15.63
2018-10-01T10:06:09.303Z,15.80
2018-10-01T10:08:37.620Z,15.91
2018-10-01T10:11:06.131Z,15.93
2018-10-01T10:13:34.125Z,15.87
2018-10-01T10:16:02.211Z,15.88
2018-10-01T10:18:30.118Z,15.99
2018-10-01T10:20:57.941Z,15.88
2018-10-01T10:23:26.091Z,15.84
2018-10-01T10:25:54.083Z,15.73
2018-10-01T10:28:22.209Z,15.73
2018-10-01T10:30:50.084Z,15.60
2018-10-01T10:33:17.956Z,15.54
2018-10-01T10:35:46.079Z,15.55
2018-10-01T10:38:14.119Z,15.43
2018-10-01T10:40:41.901Z,15.35
2018-10-01T10:43:09.737Z,15.09
2018-10-01T10:45:37.605Z,15.30
2018-10-01T10:48:05.955Z,15.35
2018-10-01T10:50:40.756Z,15.66
2018-10-01T10:53:08.590Z,16.24
2018-10-01T10:55:36.419Z,16.92
2018-10-01T10:58:04.264Z,17.54
2018-10-01T11:00:32.083Z,18.45
2018-10-01T11:02:59.937Z,18.27
2018-10-01T11:05:27.744Z,19.19
2018-10-01T11:07:55.514Z,19.46
2018-10-01T11:10:29.259Z,19.04
2018-10-01T11:12:57.090Z,18.96
2018-10-01T11:15:24.892Z,19.33
2018-10-01T11:17:52.742Z,18.85
2018-10-01T11:20:20.753Z,19.03
2018-10-01T11:22:48.500Z,19.05
2018-10-01T11:25:16.413Z,19.11
2018-10-01T11:27:44.381Z,18.96
2018-10-01T11:30:12.163Z,19.01
2018-10-01T11:32:40.089Z,19.06
2018-10-01T11:35:08.339Z,18.92
2018-10-01T11:37:36.294Z,18.23
2018-10-01T11:40:04.739Z,17.88
2018-10-01T11:42:32.599Z,17.60
2018-10-01T11:45:00.466Z,17.65
2018-10-01T11:47:28.438Z,17.67
2018-10-01T11:49:56.263Z,17.95
2018-10-01T11:52:24.289Z,17.77
2018-10-01T11:54:52.223Z,17.63
2018-10-01T11:57:20.518Z,17.50
2018-10-01T11:59:48.555Z,17.04
2018-10-01T12:02:19.380Z,16.68
2018-10-01T12:04:47.881Z,16.22
2018-10-01T12:07:16.103Z,15.68
2018-10-01T12:09:44.280Z,15.68
2018-10-01T12:12:16.427Z,15.70
2018-10-01T12:14:44.616Z,15.69
2018-10-01T12:17:13.348Z,15.77
2018-10-01T12:19:41.159Z,15.68
2018-10-01T12:22:09.302Z,15.82
2018-10-01T12:24:37.319Z,15.85
2018-10-01T12:27:05.568Z,15.05
2018-10-01T12:29:33.439Z,15.14
2018-10-01T12:32:01.327Z,15.39
2018-10-01T12:34:29.432Z,15.31
2018-10-01T12:36:57.289Z,15.01
2018-10-01T12:39:25.174Z,14.78
2018-10-01T12:41:53.216Z,15.16
2018-10-01T12:44:21.057Z,16.03
2018-10-01T12:46:49.042Z,16.58
2018-10-01T12:49:16.920Z,17.45
2018-10-01T12:51:44.972Z,17.85
2018-10-01T12:54:12.747Z,17.79
2018-10-01T12:56:40.576Z,17.84
2018-10-01T13:01:48.344Z,17.72
2018-10-01T13:04:16.131Z,17.59
2018-10-01T13:06:44.122Z,17.07
2018-10-01T13:09:12.398Z,17.21
2018-10-01T13:11:40.851Z,17.30
2018-10-01T13:14:08.960Z,18.07
2018-10-01T13:16:37.127Z,19.15
2018-10-01T13:19:05.023Z,19.70
2018-10-01T13:21:32.855Z,20.16
2018-10-01T13:24:00.791Z,19.86
2018-10-01T13:26:28.610Z,19.56
2018-10-01T13:28:56.556Z,20.14
2018-10-01T13:31:24.399Z,20.25
2018-10-01T13:33:52.502Z,20.47
2018-10-01T13:36:20.505Z,20.25
2018-10-01T13:38:48.207Z,20.02
2018-10-01T13:41:19.303Z,19.90
2018-10-01T13:43:47.239Z,19.71
2018-10-01T13:46:15.071Z,19.48
2018-10-01T13:48:42.943Z,19.21
2018-10-01T13:51:10.751Z,18.66
2018-10-01T13:54:10.740Z,18.35
2018-10-01T13:56:48.104Z,17.66
2018-10-01T13:59:16.019Z,16.72
2018-10-01T14:01:43.937Z,15.98
2018-10-01T14:04:11.761Z,15.32
2018-10-01T14:06:39.689Z,14.70
2018-10-01T14:09:09.527Z,14.56
2018-10-01T14:11:37.439Z,14.45
2018-10-01T14:14:05.469Z,14.41
2018-10-01T14:16:33.247Z,14.46
2018-10-01T14:19:01.162Z,14.55
2018-10-01T14:21:28.949Z,14.61
2018-10-01T14:23:56.951Z,14.64
2018-10-01T14:26:25.375Z,14.63
2018-10-01T14:28:53.183Z,14.58
2018-10-01T14:31:21.171Z,14.52
2018-10-01T14:33:48.945Z,14.41
2018-10-01T14:36:16.769Z,14.23
2018-10-01T14:38:44.527Z,14.03
2018-10-01T14:41:12.315Z,14.03
2018-10-01T14:43:40.207Z,13.94
2018-10-01T14:46:08.032Z,14.14
2018-10-01T14:48:35.896Z,14.21
2018-10-01T14:51:03.656Z,14.21
2018-10-01T14:53:31.399Z,14.20
2018-10-01T14:55:59.700Z,14.37
2018-10-01T14:58:27.547Z,14.55
2018-10-01T15:00:55.461Z,14.49
2018-10-01T15:03:23.331Z,14.62
2018-10-01T15:05:51.125Z,14.48
2018-10-01T15:08:19.264Z,14.56
2018-10-01T15:10:47.101Z,14.73
2018-10-01T15:13:15.564Z,14.17
2018-10-01T15:15:44.192Z,14.26
2018-10-01T15:18:12.026Z,14.16
2018-10-01T15:20:39.839Z,14.09
2018-10-01T15:23:07.767Z,13.76
2018-10-01T15:25:35.568Z,13.79
2018-10-01T15:28:03.429Z,13.38
2018-10-01T15:30:31.260Z,13.54
2018-10-01T15:32:59.069Z,13.47
2018-10-01T15:35:27.009Z,13.53
2018-10-01T15:37:54.905Z,13.60
2018-10-01T15:40:22.780Z,13.49
2018-10-01T15:42:50.819Z,13.39
2018-10-01T15:45:18.639Z,13.23
2018-10-01T15:47:46.476Z,13.26
2018-10-01T15:50:14.278Z,13.08
2018-10-01T15:52:42.066Z,12.89
2018-10-01T15:55:09.847Z,12.75
2018-10-01T15:57:37.661Z,12.73
2018-10-01T16:00:05.504Z,12.65
2018-10-01T16:02:34.082Z,12.63
2018-10-01T16:05:01.934Z,12.65
2018-10-01T16:07:29.794Z,12.59
2018-10-01T16:09:57.619Z,12.58
2018-10-01T16:12:25.835Z,12.63
2018-10-01T16:14:53.687Z,12.60
2018-10-01T16:17:21.500Z,12.65
2018-10-01T16:19:49.352Z,12.55
2018-10-01T16:22:17.270Z,12.47
2018-10-01T16:27:18.682Z,12.49
2018-10-01T16:29:46.436Z,12.50
2018-10-01T16:32:14.332Z,12.43
2018-10-01T16:34:42.135Z,12.26
2018-10-01T16:37:13.111Z,12.42
2018-10-01T16:39:41.279Z,12.32
2018-10-01T16:47:17.444Z,11.89
2018-10-01T16:49:45.339Z,11.98
2018-10-01T16:52:13.290Z,11.92
2018-10-01T16:54:41.585Z,11.90
2018-10-01T16:57:09.437Z,11.90
2018-10-01T16:59:37.337Z,11.89
2018-10-01T17:02:05.160Z,11.79
2018-10-01T17:04:33.471Z,11.65
2018-10-01T17:07:01.684Z,11.51
2018-10-01T17:09:29.462Z,11.38
2018-10-01T17:11:57.572Z,11.71
2018-10-01T17:14:25.548Z,11.58
2018-10-01T17:16:53.379Z,11.60
2018-10-01T17:19:21.619Z,11.65
2018-10-01T17:21:49.475Z,11.60
2018-10-01T17:24:17.347Z,11.61
2018-10-01T17:26:45.236Z,11.61
2018-10-01T17:29:13.035Z,11.57
2018-10-01T17:31:40.823Z,11.54
2018-10-01T17:34:08.736Z,11.46
2018-10-01T17:36:37.132Z,11.42
2018-10-01T17:39:08.055Z,11.39
2018-10-01T17:41:35.972Z,11.38
2018-10-01T17:44:03.920Z,11.35
2018-10-01T17:46:31.826Z,11.36
2018-10-01T17:48:59.599Z,11.43
2018-10-01T17:51:28.075Z,11.43
2018-10-01T17:53:56.314Z,11.43
2018-10-01T17:56:24.223Z,11.51
2018-10-01T17:58:52.049Z,11.49
2018-10-01T18:01:19.860Z,11.49
2018-10-01T18:03:47.672Z,11.48
2018-10-01T18:06:15.637Z,11.53
2018-10-01T18:08:43.604Z,11.60
2018-10-01T18:11:11.499Z,11.57
2018-10-01T18:13:39.315Z,11.62
2018-10-01T18:16:07.530Z,11.59
2018-10-01T18:18:35.393Z,11.60
2018-10-01T18:21:03.403Z,11.61
2018-10-01T18:23:31.239Z,11.61
2018-10-01T18:25:59.473Z,11.64
2018-10-01T18:28:27.403Z,11.64
2018-10-01T18:30:55.326Z,11.63
2018-10-01T18:33:23.138Z,11.68
2018-10-01T18:35:51.065Z,11.67
2018-10-01T18:38:18.988Z,11.68
2018-10-01T18:40:46.871Z,11.72
2018-10-01T18:43:14.679Z,11.75
2018-10-01T18:45:42.628Z,11.74
2018-10-01T18:48:10.549Z,11.73
2018-10-01T18:50:38.458Z,11.73
2018-10-01T18:53:06.811Z,11.75
2018-10-01T18:55:34.662Z,11.75
2018-10-01T18:58:02.743Z,11.77
2018-10-01T19:00:31.434Z,11.76
2018-10-01T19:03:00.934Z,11.75
2018-10-01T19:05:29.645Z,11.75
2018-10-01T19:08:06.874Z,11.78
2018-10-01T19:10:38.969Z,11.79
2018-10-01T19:13:14.167Z,11.78
2018-10-01T19:15:44.711Z,11.81
2018-10-01T19:18:12.819Z,11.79
2018-10-01T19:20:40.680Z,11.79
2018-10-01T19:23:08.499Z,11.78
2018-10-01T19:25:36.332Z,11.79
2018-10-01T19:28:04.188Z,11.81
2018-10-01T19:30:32.144Z,11.82
2018-10-01T19:32:59.912Z,11.81
2018-10-01T19:35:27.866Z,11.83
2018-10-01T19:37:55.952Z,11.87
2018-10-01T19:40:24.099Z,11.83
2018-10-01T19:42:51.923Z,11.85
2018-10-01T19:45:19.881Z,11.83
2018-10-01T19:47:47.819Z,11.85
2018-10-01T19:50:15.671Z,11.87
2018-10-01T19:52:43.611Z,11.87
2018-10-01T19:55:12.603Z,11.86
2018-10-01T19:57:40.555Z,11.86
2018-10-01T20:00:08.499Z,11.84
2018-10-01T20:02:36.295Z,11.83
2018-10-01T20:05:04.846Z,11.80
2018-10-01T20:07:32.792Z,11.77
2018-10-01T20:10:00.912Z,11.75
2018-10-01T20:12:28.784Z,11.74
2018-10-01T20:14:56.618Z,11.74
2018-10-01T20:17:24.624Z,11.74
2018-10-01T20:19:56.324Z,11.73
2018-10-01T20:22:24.173Z,11.72
2018-10-01T20:24:52.182Z,11.73
2018-10-01T20:27:20.073Z,11.73
2018-10-01T20:29:48.021Z,11.72
2018-10-01T20:32:16.073Z,11.70
2018-10-01T20:34:44.163Z,11.68
2018-10-01T20:37:24.676Z,11.64
2018-10-01T20:39:52.548Z,11.63
2018-10-01T20:42:20.418Z,11.60
2018-10-01T20:44:48.295Z,11.58
2018-10-01T20:47:16.394Z,11.58
2018-10-01T20:49:44.509Z,11.56
2018-10-01T20:52:12.424Z,11.54
2018-10-01T20:54:40.227Z,11.53
2018-10-01T20:57:08.084Z,11.48
2018-10-01T20:59:36.142Z,11.41
2018-10-01T21:02:03.927Z,11.37
2018-10-01T21:04:31.707Z,11.38
2018-10-01T21:06:59.514Z,11.41
2018-10-01T21:09:27.345Z,11.33
2018-10-01T21:11:55.252Z,11.30
2018-10-01T21:14:23.177Z,11.33
2018-10-01T21:16:51.009Z,11.35
2018-10-01T21:19:18.924Z,11.30
2018-10-01T21:21:46.743Z,11.33
2018-10-01T21:24:14.579Z,11.18
2018-10-01T21:26:42.435Z,11.19
2018-10-01T21:29:10.659Z,11.15
2018-10-01T21:31:38.800Z,11.14
2018-10-01T21:34:06.845Z,11.09
2018-10-01T21:36:34.680Z,11.12
2018-10-01T21:39:03.227Z,10.99
2018-10-01T21:41:31.420Z,10.99
2018-10-01T21:43:59.294Z,10.98
2018-10-01T21:46:27.091Z,10.99
2018-10-01T21:48:55.931Z,10.99
2018-10-01T21:51:23.723Z,10.92
2018-10-01T21:53:51.948Z,10.90
2018-10-01T21:56:19.761Z,10.90
2018-10-01T21:58:47.555Z,10.85
2018-10-01T22:01:21.100Z,10.94
2018-10-01T22:03:48.916Z,10.83
2018-10-01T22:06:16.803Z,10.82
2018-10-01T22:08:44.663Z,10.85
2018-10-01T22:11:12.924Z,10.86
2018-10-01T22:13:40.759Z,10.89
2018-10-01T22:16:08.683Z,10.84
2018-10-01T22:18:36.487Z,10.83
2018-10-01T22:21:04.318Z,10.79
2018-10-01T22:23:32.260Z,10.74
2018-10-01T22:26:00.076Z,10.72
2018-10-01T22:28:28.215Z,10.69
2018-10-01T22:30:56.041Z,10.66
2018-10-01T22:33:23.893Z,10.58
2018-10-01T22:35:52.024Z,10.52
2018-10-01T22:38:19.863Z,10.50
2018-10-01T22:40:47.699Z,10.45
2018-10-01T22:43:15.568Z,10.42
2018-10-01T22:45:43.373Z,10.36
2018-10-01T22:48:11.201Z,10.31
2018-10-01T22:50:42.366Z,10.07
2018-10-01T22:53:10.225Z,9.93
2018-10-01T22:55:38.791Z,9.96
2018-10-01T22:58:06.607Z,9.80
2018-10-01T23:00:34.463Z,9.82
2018-10-01T23:03:02.251Z,9.80
2018-10-01T23:05:30.092Z,9.71
2018-10-01T23:07:57.914Z,9.65
2018-10-01T23:10:25.746Z,9.61
2018-10-01T23:12:53.567Z,9.55
2018-10-01T23:15:21.425Z,9.55
2018-10-01T23:17:49.275Z,9.50
2018-10-01T23:20:17.104Z,9.47
2018-10-01T23:22:44.940Z,9.44
2018-10-01T23:25:12.827Z,9.43
2018-10-01T23:27:40.607Z,9.42
2018-10-01T23:30:08.421Z,9.40
2018-10-01T23:32:36.255Z,9.38
2018-10-01T23:35:04.142Z,9.29
2018-10-01T23:37:32.002Z,9.33
2018-10-01T23:40:00.144Z,9.17
2018-10-01T23:42:28.081Z,9.14
2018-10-01T23:44:55.959Z,9.14
2018-10-01T23:47:30.530Z,9.09
2018-10-01T23:49:58.367Z,9.13
2018-10-01T23:52:26.199Z,9.15
2018-10-01T23:54:53.988Z,9.10
2018-10-01T23:57:21.863Z,9.15
2018-10-01T23:59:49.648Z,9.17
